createdAt,value
2019-02-25T00:02:25.204Z,7.90
2019-02-25T00:04:53.960Z,8.00
2019-02-25T00:07:22.487Z,8.00
2019-02-25T00:09:50.696Z,8.10
2019-02-25T00:12:18.927Z,8.10
2019-02-25T00:14:47.307Z,8.10
2019-02-25T00:17:15.524Z,8.10
2019-02-25T00:19:43.741Z,8.10
2019-02-25T00:22:11.969Z,8.10
2019-02-25T00:24:40.509Z,8.10
2019-02-25T00:27:08.737Z,8.00
2019-02-25T00:29:36.952Z,8.00
2019-02-25T00:32:05.180Z,7.90
2019-02-25T00:34:33.664Z,7.80
2019-02-25T00:37:01.971Z,7.80
2019-02-25T00:39:30.189Z,7.70
2019-02-25T00:41:58.736Z,7.70
2019-02-25T00:44:26.968Z,7.70
2019-02-25T00:46:55.183Z,7.60
2019-02-25T00:49:23.418Z,7.40
2019-02-25T00:51:51.900Z,7.30
2019-02-25T00:54:20.120Z,7.30
2019-02-25T00:56:48.336Z,7.30
2019-02-25T00:59:16.561Z,7.30
2019-02-25T01:01:44.781Z,7.20
2019-02-25T01:04:13.004Z,7.10
2019-02-25T01:06:41.525Z,7.10
2019-02-25T01:09:09.751Z,7.00
2019-02-25T01:11:37.967Z,7.00
2019-02-25T01:14:06.196Z,6.90
2019-02-25T01:16:34.412Z,6.80
2019-02-25T01:19:02.640Z,6.80
2019-02-25T01:21:30.853Z,6.80
2019-02-25T01:23:59.083Z,6.80
2019-02-25T01:26:27.297Z,6.70
2019-02-25T01:28:55.523Z,6.60
2019-02-25T01:31:23.735Z,6.60
2019-02-25T01:33:51.969Z,6.50
2019-02-25T01:36:20.181Z,6.50
2019-02-25T01:38:48.408Z,6.50
2019-02-25T01:41:16.629Z,6.50
2019-02-25T01:43:45.145Z,6.60
2019-02-25T01:46:13.364Z,6.50
2019-02-25T01:48:41.588Z,6.40
2019-02-25T01:51:10.113Z,6.40
2019-02-25T01:53:38.336Z,6.40
2019-02-25T01:56:06.555Z,6.30
2019-02-25T01:58:34.782Z,6.20
2019-02-25T02:01:02.997Z,6.20
2019-02-25T02:03:31.224Z,6.10
2019-02-25T02:05:59.749Z,6.20
2019-02-25T02:08:27.979Z,6.10
2019-02-25T02:10:56.192Z,6.10
2019-02-25T02:13:24.720Z,5.90
2019-02-25T02:15:53.221Z,5.90
2019-02-25T02:18:21.535Z,5.90
2019-02-25T02:20:49.752Z,6.00
2019-02-25T02:23:17.984Z,6.00
2019-02-25T02:25:46.196Z,6.00
2019-02-25T02:28:14.425Z,6.00
2019-02-25T02:30:42.640Z,6.00
2019-02-25T02:33:11.138Z,6.00
2019-02-25T02:35:39.359Z,5.90
2019-02-25T02:38:07.581Z,5.90
2019-02-25T02:40:36.101Z,5.90
2019-02-25T02:43:04.596Z,5.90
2019-02-25T02:45:38.479Z,5.80
2019-02-25T02:48:16.116Z,5.80
2019-02-25T02:50:44.347Z,5.70
2019-02-25T02:53:12.630Z,5.70
2019-02-25T02:55:41.206Z,5.70
2019-02-25T02:58:09.412Z,5.70
2019-02-25T03:00:37.986Z,5.70
2019-02-25T03:03:06.434Z,5.70
2019-02-25T03:05:34.657Z,5.60
2019-02-25T03:08:03.164Z,5.60
2019-02-25T03:10:31.464Z,5.60
2019-02-25T03:12:59.711Z,5.60
2019-02-25T03:15:27.916Z,5.60
2019-02-25T03:17:56.221Z,5.60
2019-02-25T03:20:24.480Z,5.60
2019-02-25T03:22:52.702Z,5.60
2019-02-25T03:25:33.471Z,5.60
2019-02-25T03:28:01.680Z,5.60
2019-02-25T03:30:29.909Z,5.60
2019-02-25T03:32:58.126Z,5.50
2019-02-25T03:35:26.624Z,5.60
2019-02-25T03:37:54.841Z,5.60
2019-02-25T03:40:23.915Z,5.50
2019-02-25T03:42:52.124Z,5.50
2019-02-25T03:45:20.624Z,5.50
2019-02-25T03:47:48.837Z,5.50
2019-02-25T03:50:17.278Z,5.50
2019-02-25T03:52:45.554Z,5.40
2019-02-25T03:55:21.393Z,5.40
2019-02-25T03:57:49.965Z,5.30
2019-02-25T04:00:21.501Z,5.30
2019-02-25T04:02:50.596Z,5.30
2019-02-25T04:05:19.208Z,5.40
2019-02-25T04:07:47.425Z,5.40
2019-02-25T04:10:16.088Z,5.40
2019-02-25T04:12:44.599Z,5.50
2019-02-25T04:15:19.073Z,5.50
2019-02-25T04:17:47.617Z,5.50
2019-02-25T04:20:16.892Z,5.60
2019-02-25T04:22:45.115Z,5.50
2019-02-25T04:25:13.361Z,5.50
2019-02-25T04:27:41.628Z,5.60
2019-02-25T04:30:12.398Z,5.50
2019-02-25T04:32:40.613Z,5.50
2019-02-25T04:35:09.971Z,5.40
2019-02-25T04:37:38.225Z,5.40
2019-02-25T04:40:12.254Z,5.40
2019-02-25T04:42:40.748Z,5.40
2019-02-25T04:45:12.082Z,5.40
2019-02-25T04:47:40.302Z,5.20
2019-02-25T04:50:10.035Z,5.20
2019-02-25T04:52:38.303Z,5.20
2019-02-25T04:55:08.479Z,5.10
2019-02-25T04:57:36.688Z,5.10
2019-02-25T05:00:08.236Z,5.00
2019-02-25T05:02:36.468Z,5.00
2019-02-25T05:05:05.196Z,5.10
2019-02-25T05:07:33.405Z,5.00
2019-02-25T05:10:01.889Z,4.80
2019-02-25T05:12:30.090Z,4.90
2019-02-25T05:14:58.309Z,4.80
2019-02-25T05:17:26.845Z,4.70
2019-02-25T05:19:55.340Z,4.90
2019-02-25T05:22:23.568Z,6.70
2019-02-25T05:24:51.794Z,10.00
2019-02-25T05:27:20.045Z,11.40
2019-02-25T05:29:48.317Z,11.80
2019-02-25T05:32:16.564Z,10.20
2019-02-25T05:34:44.855Z,8.60
2019-02-25T05:37:13.133Z,7.60
2019-02-25T05:39:41.341Z,6.90
2019-02-25T05:42:09.565Z,6.40
2019-02-25T05:44:37.777Z,5.90
2019-02-25T05:47:07.607Z,5.50
2019-02-25T05:49:36.145Z,5.30
2019-02-25T05:52:04.379Z,5.30
2019-02-25T05:54:32.595Z,5.20
2019-02-25T05:57:00.821Z,5.10
2019-02-25T05:59:29.307Z,5.10
2019-02-25T06:01:57.540Z,5.00
2019-02-25T06:04:25.758Z,5.00
2019-02-25T06:06:53.986Z,5.00
2019-02-25T06:09:22.197Z,4.90
2019-02-25T06:11:50.426Z,4.90
2019-02-25T06:14:18.636Z,4.80
2019-02-25T06:16:47.132Z,4.80
2019-02-25T06:19:15.341Z,4.80
2019-02-25T06:21:43.568Z,4.70
2019-02-25T06:24:11.798Z,4.70
2019-02-25T06:26:40.027Z,4.80
2019-02-25T06:29:08.242Z,4.80
2019-02-25T06:31:36.480Z,4.80
2019-02-25T06:34:04.942Z,4.70
2019-02-25T06:36:33.173Z,4.50
2019-02-25T06:39:01.389Z,4.50
2019-02-25T06:41:29.617Z,4.50
2019-02-25T06:43:57.836Z,4.60
2019-02-25T06:46:26.385Z,4.60
2019-02-25T06:48:54.599Z,4.60
2019-02-25T06:51:22.896Z,4.70
2019-02-25T06:53:51.490Z,4.80
2019-02-25T06:56:19.755Z,4.80
2019-02-25T06:58:48.248Z,4.80
2019-02-25T07:01:16.467Z,4.90
2019-02-25T07:03:46.327Z,4.90
2019-02-25T07:06:27.924Z,4.90
2019-02-25T07:08:57.797Z,5.00
2019-02-25T07:11:27.664Z,5.20
2019-02-25T07:14:03.784Z,5.20
2019-02-25T07:16:33.918Z,5.30
2019-02-25T07:19:03.780Z,5.40
2019-02-25T07:21:49.875Z,5.30
2019-02-25T07:24:19.764Z,5.50
2019-02-25T07:26:52.676Z,5.60
2019-02-25T07:29:25.537Z,5.60
2019-02-25T07:31:55.402Z,5.50
2019-02-25T07:34:28.388Z,5.60
2019-02-25T07:37:09.964Z,5.70
2019-02-25T07:39:39.825Z,5.60
2019-02-25T07:42:16.101Z,5.70
2019-02-25T07:44:48.904Z,5.70
2019-02-25T07:47:24.790Z,5.80
2019-02-25T07:49:54.632Z,5.90
2019-02-25T07:52:30.516Z,6.00
2019-02-25T07:55:06.180Z,6.10
2019-02-25T07:57:36.040Z,6.20
2019-02-25T08:00:07.232Z,6.20
2019-02-25T08:02:46.142Z,6.30
2019-02-25T08:05:18.976Z,6.20
2019-02-25T08:07:57.857Z,6.30
2019-02-25T08:10:30.408Z,6.30
2019-02-25T08:13:00.603Z,6.30
2019-02-25T08:15:30.732Z,6.50
2019-02-25T08:18:03.492Z,6.80
2019-02-25T08:20:42.132Z,6.90
2019-02-25T08:23:21.251Z,7.00
2019-02-25T08:26:00.566Z,7.20
2019-02-25T08:28:36.657Z,7.40
2019-02-25T08:31:18.490Z,7.60
2019-02-25T08:33:55.511Z,7.90
2019-02-25T08:36:49.076Z,7.80
2019-02-25T08:39:34.859Z,8.00
2019-02-25T08:42:07.558Z,8.30
2019-02-25T08:44:37.752Z,8.60
2019-02-25T08:47:16.583Z,8.80
2019-02-25T08:49:46.716Z,8.90
2019-02-25T08:52:14.944Z,8.70
2019-02-25T08:54:43.517Z,8.80
2019-02-25T08:57:11.749Z,9.10
2019-02-25T08:59:40.285Z,9.50
2019-02-25T09:02:08.512Z,9.80
2019-02-25T09:04:36.728Z,10.10
2019-02-25T09:07:04.960Z,10.30
2019-02-25T09:09:33.181Z,10.60
2019-02-25T09:12:01.403Z,10.70
2019-02-25T09:14:29.647Z,10.70
2019-02-25T09:16:57.869Z,11.00
2019-02-25T09:19:26.101Z,11.20
2019-02-25T09:21:54.719Z,11.60
2019-02-25T09:24:22.956Z,12.00
2019-02-25T09:26:51.241Z,12.30
2019-02-25T09:29:19.582Z,12.50
2019-02-25T09:31:47.807Z,12.50
2019-02-25T09:34:16.340Z,12.50
2019-02-25T09:36:44.556Z,12.50
2019-02-25T09:39:13.113Z,12.70
2019-02-25T09:41:41.336Z,12.80
2019-02-25T09:44:09.567Z,12.90
2019-02-25T09:46:37.857Z,13.10
2019-02-25T09:49:06.092Z,13.40
2019-02-25T09:51:34.312Z,13.10
2019-02-25T09:54:02.551Z,13.30
2019-02-25T09:56:31.041Z,13.40
2019-02-25T09:58:59.277Z,13.60
2019-02-25T10:01:27.510Z,13.70
2019-02-25T10:03:55.729Z,13.90
2019-02-25T10:06:23.953Z,14.20
2019-02-25T10:08:52.490Z,14.30
2019-02-25T10:11:20.949Z,14.40
2019-02-25T10:13:49.186Z,14.60
2019-02-25T10:16:17.404Z,14.80
2019-02-25T10:18:45.644Z,14.90
2019-02-25T10:21:13.873Z,15.20
2019-02-25T10:23:42.422Z,15.10
2019-02-25T10:26:10.920Z,15.30
2019-02-25T10:28:39.155Z,15.40
2019-02-25T10:31:07.373Z,15.40
2019-02-25T10:33:35.608Z,15.40
2019-02-25T10:36:03.825Z,15.40
2019-02-25T10:38:32.059Z,15.50
2019-02-25T10:41:00.551Z,15.70
2019-02-25T10:43:29.682Z,15.70
2019-02-25T10:45:58.995Z,15.90
2019-02-25T10:48:27.568Z,15.90
2019-02-25T10:50:56.430Z,15.90
2019-02-25T10:53:25.070Z,15.90
2019-02-25T10:55:59.172Z,15.90
2019-02-25T10:58:28.995Z,16.00
2019-02-25T11:00:57.636Z,15.90
2019-02-25T11:03:26.217Z,15.90
2019-02-25T11:05:56.212Z,16.00
2019-02-25T11:08:24.580Z,16.10
2019-02-25T11:10:54.951Z,16.20
2019-02-25T11:13:25.408Z,16.20
2019-02-25T11:15:53.533Z,16.20
2019-02-25T11:18:23.921Z,16.20
2019-02-25T11:20:52.016Z,16.20
2019-02-25T11:23:21.641Z,16.30
2019-02-25T11:25:51.484Z,16.30
2019-02-25T11:28:25.611Z,16.30
2019-02-25T11:30:51.958Z,16.40
2019-02-25T11:33:22.728Z,16.40
2019-02-25T11:35:50.777Z,16.50
2019-02-25T11:38:19.088Z,16.60
2019-02-25T11:40:47.309Z,16.60
2019-02-25T11:43:16.676Z,16.60
2019-02-25T11:45:45.560Z,16.70
2019-02-25T11:48:13.777Z,16.70
2019-02-25T11:50:42.015Z,16.70
2019-02-25T11:53:10.236Z,16.80
2019-02-25T11:55:38.478Z,16.80
2019-02-25T11:58:06.704Z,16.80
2019-02-25T12:00:34.938Z,16.80
2019-02-25T12:03:03.480Z,16.70
2019-02-25T12:05:31.716Z,16.80
2019-02-25T12:08:00.264Z,16.80
2019-02-25T12:10:28.492Z,16.80
2019-02-25T12:12:57.054Z,16.80
2019-02-25T12:15:25.540Z,16.80
2019-02-25T12:17:53.765Z,16.90
2019-02-25T12:20:22.053Z,17.00
2019-02-25T12:22:50.288Z,17.00
2019-02-25T12:25:23.000Z,17.20
2019-02-25T12:27:51.225Z,17.30
2019-02-25T12:30:21.524Z,17.50
2019-02-25T12:32:49.834Z,17.50
2019-02-25T12:35:18.417Z,17.50
2019-02-25T12:37:46.942Z,17.60
2019-02-25T12:40:16.524Z,17.70
2019-02-25T12:42:44.748Z,17.80
2019-02-25T12:45:14.131Z,17.90
2019-02-25T12:47:42.345Z,17.80
2019-02-25T12:50:15.517Z,17.90
2019-02-25T12:52:43.789Z,18.10
2019-02-25T12:55:14.224Z,18.00
2019-02-25T12:57:42.447Z,17.90
2019-02-25T13:00:13.885Z,17.90
2019-02-25T13:02:42.108Z,18.00
2019-02-25T13:05:12.792Z,18.10
2019-02-25T13:07:41.076Z,18.10
2019-02-25T13:10:11.993Z,18.30
2019-02-25T13:12:40.204Z,18.40
2019-02-25T13:15:19.879Z,18.60
2019-02-25T13:17:48.160Z,18.70
2019-02-25T13:20:16.698Z,18.90
2019-02-25T13:22:45.189Z,19.20
2019-02-25T13:25:22.900Z,19.20
2019-02-25T13:27:52.017Z,19.50
2019-02-25T13:30:21.082Z,19.50
2019-02-25T13:32:49.296Z,19.60
2019-02-25T13:35:17.530Z,19.50
2019-02-25T13:37:46.088Z,19.60
2019-02-25T13:40:16.634Z,19.90
2019-02-25T13:42:44.967Z,20.00
2019-02-25T13:45:15.989Z,19.80
2019-02-25T13:47:44.580Z,19.60
2019-02-25T13:50:16.482Z,19.60
2019-02-25T13:52:48.421Z,19.60
2019-02-25T13:55:19.637Z,19.70
2019-02-25T13:57:47.860Z,19.50
2019-02-25T14:00:21.352Z,19.50
2019-02-25T14:02:49.681Z,19.50
2019-02-25T14:05:17.987Z,19.60
2019-02-25T14:07:46.523Z,19.70
2019-02-25T14:10:15.893Z,19.60
2019-02-25T14:12:44.108Z,19.50
2019-02-25T14:15:15.051Z,19.50
2019-02-25T14:17:43.268Z,19.40
2019-02-25T14:20:13.740Z,19.40
2019-02-25T14:22:41.960Z,19.30
2019-02-25T14:25:12.614Z,19.20
2019-02-25T14:27:40.900Z,19.10
2019-02-25T14:30:15.045Z,19.00
2019-02-25T14:32:43.484Z,19.00
2019-02-25T14:35:11.784Z,19.00
2019-02-25T14:37:40.051Z,18.90
2019-02-25T14:40:16.693Z,18.90
2019-02-25T14:42:46.887Z,18.90
2019-02-25T14:45:19.667Z,18.90
2019-02-25T14:47:46.840Z,18.90
2019-02-25T14:50:22.565Z,18.90
2019-02-25T14:52:50.800Z,18.80
2019-02-25T14:55:20.045Z,18.80
2019-02-25T14:57:48.609Z,18.80
2019-02-25T15:00:28.869Z,18.80
2019-02-25T15:02:56.720Z,18.60
2019-02-25T15:05:25.267Z,18.40
2019-02-25T15:07:53.545Z,18.30
2019-02-25T15:10:26.728Z,18.20
2019-02-25T15:12:56.485Z,18.10
2019-02-25T15:15:23.207Z,17.90
2019-02-25T15:17:52.768Z,17.70
2019-02-25T15:20:23.423Z,17.50
2019-02-25T15:22:52.008Z,17.40
2019-02-25T15:25:20.943Z,17.30
2019-02-25T15:27:49.628Z,17.20
2019-02-25T15:30:25.586Z,17.10
2019-02-25T15:32:56.995Z,17.10
2019-02-25T15:35:26.524Z,16.90
2019-02-25T15:37:55.213Z,16.90
2019-02-25T15:40:25.100Z,16.80
2019-02-25T15:43:15.110Z,16.70
2019-02-25T15:45:42.708Z,16.70
2019-02-25T15:48:14.105Z,16.80
2019-02-25T15:50:44.091Z,16.80
2019-02-25T15:53:15.757Z,16.70
2019-02-25T15:55:42.449Z,16.80
2019-02-25T15:58:11.446Z,17.30
2019-02-25T16:00:39.934Z,17.50
2019-02-25T16:03:09.095Z,17.70
2019-02-25T16:05:38.924Z,17.70
2019-02-25T16:08:07.303Z,17.70
2019-02-25T16:10:35.569Z,17.90
2019-02-25T16:13:05.959Z,18.00
2019-02-25T16:15:34.185Z,18.00
2019-02-25T16:18:02.683Z,17.70
2019-02-25T16:20:32.503Z,17.40
2019-02-25T16:23:02.788Z,17.20
2019-02-25T16:25:32.240Z,16.90
2019-02-25T16:28:01.288Z,16.70
2019-02-25T16:30:30.773Z,16.70
2019-02-25T16:33:00.106Z,16.60
2019-02-25T16:35:29.693Z,16.40
2019-02-25T16:37:59.892Z,16.40
2019-02-25T16:40:29.137Z,16.40
2019-02-25T16:42:59.754Z,16.30
2019-02-25T16:45:34.292Z,16.10
2019-02-25T16:47:58.044Z,16.10
2019-02-25T16:50:26.719Z,16.00
2019-02-25T16:52:55.036Z,16.00
2019-02-25T16:55:25.757Z,15.90
2019-02-25T16:57:53.957Z,15.90
2019-02-25T17:00:29.394Z,15.80
2019-02-25T17:03:01.341Z,15.80
2019-02-25T17:05:27.584Z,15.70
2019-02-25T17:07:56.385Z,15.60
2019-02-25T17:10:27.089Z,15.50
2019-02-25T17:12:55.475Z,15.40
2019-02-25T17:15:26.291Z,15.40
2019-02-25T17:17:53.907Z,15.30
2019-02-25T17:20:22.977Z,15.20
2019-02-25T17:22:51.297Z,15.10
2019-02-25T17:25:19.524Z,15.00
2019-02-25T17:27:47.849Z,14.90
2019-02-25T17:30:24.072Z,14.90
2019-02-25T17:32:52.455Z,14.90
2019-02-25T17:35:23.552Z,14.80
2019-02-25T17:37:53.110Z,14.70
2019-02-25T17:40:21.344Z,14.70
2019-02-25T17:42:51.524Z,14.60
2019-02-25T17:45:29.453Z,14.50
2019-02-25T17:47:58.443Z,14.40
2019-02-25T17:50:27.144Z,14.40
2019-02-25T17:52:55.499Z,14.30
2019-02-25T17:55:27.294Z,14.20
2019-02-25T17:57:59.209Z,14.20
2019-02-25T18:00:39.578Z,14.10
2019-02-25T18:03:07.553Z,14.10
2019-02-25T18:05:38.082Z,14.00
2019-02-25T18:08:08.136Z,14.00
2019-02-25T18:10:37.003Z,14.00
2019-02-25T18:13:08.211Z,13.90
2019-02-25T18:15:35.196Z,13.90
2019-02-25T18:18:07.154Z,13.90
2019-02-25T18:20:33.753Z,13.80
2019-02-25T18:23:04.987Z,13.80
2019-02-25T18:25:32.977Z,13.70
2019-02-25T18:28:01.411Z,13.70
2019-02-25T18:30:32.314Z,13.70
2019-02-25T18:33:04.616Z,13.70
2019-02-25T18:35:31.152Z,13.60
2019-02-25T18:38:02.120Z,13.60
2019-02-25T18:40:30.441Z,13.60
2019-02-25T18:43:00.329Z,13.50
2019-02-25T18:45:28.730Z,13.50
2019-02-25T18:47:56.969Z,13.40
2019-02-25T18:50:26.847Z,13.40
2019-02-25T18:52:57.236Z,13.40
2019-02-25T18:55:27.108Z,13.40
2019-02-25T18:57:56.880Z,13.40
2019-02-25T19:00:35.340Z,13.30
2019-02-25T19:03:04.787Z,13.30
2019-02-25T19:05:33.473Z,13.30
2019-02-25T19:08:02.080Z,13.30
2019-02-25T19:10:30.368Z,13.30
2019-02-25T19:13:00.808Z,13.20
2019-02-25T19:15:29.018Z,13.20
2019-02-25T19:17:57.670Z,13.20
2019-02-25T19:20:26.578Z,13.10
2019-02-25T19:22:58.166Z,13.10
2019-02-25T19:25:25.758Z,13.10
2019-02-25T19:27:54.909Z,13.00
2019-02-25T19:30:24.822Z,13.00
2019-02-25T19:32:54.052Z,12.90
2019-02-25T19:35:25.803Z,12.80
2019-02-25T19:37:52.357Z,12.80
2019-02-25T19:40:24.723Z,12.80
2019-02-25T19:42:54.256Z,12.80
2019-02-25T19:45:23.503Z,12.80
2019-02-25T19:47:51.797Z,12.80
2019-02-25T19:50:22.541Z,12.80
2019-02-25T19:52:50.780Z,12.80
2019-02-25T19:55:20.986Z,12.80
2019-02-25T19:57:48.968Z,12.80
2019-02-25T20:00:24.976Z,12.70
2019-02-25T20:02:53.613Z,12.70
2019-02-25T20:05:24.024Z,12.70
2019-02-25T20:07:51.822Z,12.70
2019-02-25T20:10:20.136Z,12.60
2019-02-25T20:12:50.907Z,12.60
2019-02-25T20:15:24.919Z,12.60
2019-02-25T20:17:52.972Z,12.60
2019-02-25T20:20:21.201Z,12.60
2019-02-25T20:22:49.748Z,12.60
2019-02-25T20:25:19.363Z,12.50
2019-02-25T20:27:48.232Z,12.50
2019-02-25T20:30:19.636Z,12.40
2019-02-25T20:32:48.681Z,12.40
2019-02-25T20:35:19.761Z,12.30
2019-02-25T20:37:50.995Z,12.30
2019-02-25T20:40:21.223Z,12.20
2019-02-25T20:42:50.970Z,12.20
2019-02-25T20:45:32.615Z,12.10
2019-02-25T20:48:01.977Z,12.10
2019-02-25T20:50:30.325Z,12.10
2019-02-25T20:53:02.321Z,12.00
2019-02-25T20:55:29.348Z,12.00
2019-02-25T20:57:58.484Z,11.90
2019-02-25T21:00:26.888Z,11.90
2019-02-25T21:02:55.109Z,11.80
2019-02-25T21:05:25.277Z,11.80
2019-02-25T21:07:55.490Z,11.60
2019-02-25T21:10:24.890Z,11.60
2019-02-25T21:12:54.802Z,11.50
2019-02-25T21:15:24.373Z,11.40
2019-02-25T21:17:54.414Z,11.30
2019-02-25T21:20:24.136Z,11.30
2019-02-25T21:22:57.443Z,11.20
2019-02-25T21:25:26.406Z,11.10
2019-02-25T21:27:57.163Z,11.00
2019-02-25T21:30:23.814Z,11.00
2019-02-25T21:32:54.136Z,11.00
2019-02-25T21:35:25.467Z,10.90
2019-02-25T21:37:52.829Z,10.90
2019-02-25T21:40:25.053Z,10.90
2019-02-25T21:42:54.458Z,10.90
2019-02-25T21:45:25.150Z,10.90
2019-02-25T21:47:56.046Z,10.80
2019-02-25T21:50:26.332Z,10.90
2019-02-25T21:52:53.932Z,10.90
2019-02-25T21:55:23.767Z,10.80
2019-02-25T21:57:53.095Z,10.80
2019-02-25T22:00:26.997Z,10.80
2019-02-25T22:02:55.675Z,10.80
2019-02-25T22:05:24.168Z,10.80
2019-02-25T22:07:54.756Z,10.80
2019-02-25T22:10:22.643Z,10.80
2019-02-25T22:12:50.852Z,10.90
2019-02-25T22:15:20.347Z,10.80
2019-02-25T22:17:50.691Z,10.90
2019-02-25T22:20:22.102Z,10.80
2019-02-25T22:22:54.545Z,10.70
2019-02-25T22:25:21.564Z,10.70
2019-02-25T22:27:49.786Z,10.70
2019-02-25T22:30:18.530Z,10.70
2019-02-25T22:32:47.022Z,10.70
2019-02-25T22:35:15.395Z,10.70
2019-02-25T22:37:46.746Z,10.60
2019-02-25T22:40:16.906Z,10.60
2019-02-25T22:42:47.124Z,10.50
2019-02-25T22:45:19.093Z,10.40
2019-02-25T22:47:47.353Z,10.30
2019-02-25T22:50:15.904Z,10.30
2019-02-25T22:52:44.131Z,10.30
2019-02-25T22:55:15.291Z,10.10
2019-02-25T22:57:45.691Z,10.10
2019-02-25T23:00:22.711Z,10.00
2019-02-25T23:02:52.851Z,9.90
2019-02-25T23:05:23.275Z,10.00
2019-02-25T23:07:52.282Z,9.90
2019-02-25T23:10:22.370Z,9.90
2019-02-25T23:12:51.909Z,9.90
2019-02-25T23:15:20.983Z,9.80
2019-02-25T23:18:11.983Z,9.80
2019-02-25T23:20:39.443Z,9.70
2019-02-25T23:23:07.676Z,9.60
2019-02-25T23:25:36.133Z,9.60
2019-02-25T23:28:04.360Z,9.50
2019-02-25T23:30:32.576Z,9.60
2019-02-25T23:33:00.808Z,9.50
2019-02-25T23:35:29.455Z,9.50
2019-02-25T23:37:58.529Z,9.50
2019-02-25T23:40:31.237Z,9.50
2019-02-25T23:42:58.124Z,9.50
2019-02-25T23:45:26.340Z,9.50
2019-02-25T23:47:57.602Z,9.40
2019-02-25T23:50:25.766Z,9.40
2019-02-25T23:52:55.052Z,9.30
2019-02-25T23:55:24.954Z,9.20
2019-02-25T23:57:53.221Z,9.20
